Aérodrome :
LOGIN :

S'inscrire | Disclaimer

   EN    FR    IT 

 










Légende :    VFR   VFR Marginal   IFR   IFR Intensif   IFR Très Intensif
Visi : 
Plafond : 
>= 8 km
>= 3000ft
5 à 8 km
1000 à 3000 ft
1500m à 5 km
500 à 1000 ft
800 à 1500m
200 à 500 ft
< 800m
< 200 ft
Symboles :   Orages  Brouillard  Fortes neiges  Fortes précipitations  Vent > 20 kt
SIGMETs :   Divers  Orages  Givrage  Turbulence  Onde Orograph.  Cendres Volcan.







- Altitude de l'aérodrome : 586 ft


LIMN - Cameri Air Force Base

DERNIER METAR :
  • 181355Z 19003KT 150V240 0200 FZFG VV002 M01/M02 Q1027 RMK VIS MIN 0200 RED

METARs EXPIRÉS :
  • 181255Z VRB02KT 0100 FZFG VV002 M01/M02 Q1027 RMK VIS MIN 0100 RED
  • 181155Z VRB02KT 0100 FZFG VV002 M01/M03 Q1028 RMK VIS MIN 0100 RED

TAF TAF LIMN
Valide du 18 à 15h jusqu'au 19 à 00h UTC


181400Z 1815/1824 VRB02KT 0100 FZFG BKN001
Pas de NOTAMs connus pour ce terrain.



MET'MAP, la Météo Aéronautique d'un coup d'oeil ! - Copyright ORBIFLY Décembre 2007 - Disclaimer

ORBIFLY MET'MAP TEAM :

Programmation & Développement : Alexandra Zaïnal
Conception & Développement : Baudouin d'Aumeries
Co-Programmation & Développement : Marc-Olivier Méhu
Soutien technique & logistique : Manuel Goepfert

Contact : metmap@orbifly.com




SOURCES & CREDITS :

   NOAA